Watertown, New York
Current Conditions -  °F | °C
As of 11:56 PM on Wednesday 26 Nov 2014 (Local Time) from KART Reporting Station
Overcast Overcast  
Wind Chill: 22°   Ceiling: 4400
Heat Index: 30°   Visibility: 9mi
Dew Point: 22°   Wind: 8mph
Humidity: 72%   Direction: 10°N
Pressure: 30.02"   Gusts: NA
Location:  43.98°N, 75.91°W
Report Text: KART 270456Z AUTO 01007KT 9SM OVC044 M01/M06 A3002 RMK AO2 SNE39 SLP170 P0000 T10111056 400391017
Loading
Personal Weather Stations






























Interactive Weather Map New forecast layout! Learn more

10-Day Weather Forecast

Advertisements
Track Severe Weather on mobile